Time;durP1;ratioP1;P1;durP2;ratioP2;P2;SDS_P1;SDS_P2;PMS_P1;PMS_P2;Temp;Humidity;BMP_temperature;BMP_pressure;BME280_temperature;BME280_humidity;BME280_pressure;Samples;Min_cycle;Max_cycle;Signal;HPM_P1;HPM_P2
2023/09/27 00:01:52;;;;;;;21.65;12.63;;;;;;;-144.73;100.00;54448.75;5053906;28;20028;-74
2023/09/27 00:04:17;;;;;;;24.33;14.40;;;;;;;-144.73;100.00;54493.91;5051352;28;20084;-74
2023/09/27 00:06:43;;;;;;;17.50;14.13;;;;;;;-144.73;100.00;54440.53;5052121;28;20039;-74
2023/09/27 00:09:08;;;;;;;23.23;14.27;;;;;;;-144.73;100.00;54448.75;5064796;28;20039;-75
2023/09/27 00:11:34;;;;;;;20.30;13.75;;;;;;;-144.73;100.00;54481.59;5051803;28;20107;-73
2023/09/27 00:14:00;;;;;;;22.35;14.00;;;;;;;-144.73;100.00;54481.59;5051661;28;20040;-73
2023/09/27 00:16:25;;;;;;;20.83;14.68;;;;;;;-144.73;100.00;54465.16;5053211;28;20402;-74
2023/09/27 00:18:51;;;;;;;16.45;13.35;;;;;;;-144.73;100.00;54415.91;5067976;28;20037;-73
2023/09/27 00:21:17;;;;;;;17.70;12.52;;;;;;;-144.73;100.00;54452.84;5068171;28;20044;-74
2023/09/27 00:23:42;;;;;;;16.88;12.57;;;;;;;-144.73;100.00;54430.28;5051075;28;20029;-73
2023/09/27 00:26:08;;;;;;;18.20;13.30;;;;;;;-144.73;100.00;54440.53;5051494;28;20028;-74
2023/09/27 00:28:33;;;;;;;14.25;10.90;;;;;;;-144.73;100.00;54493.91;5050864;28;20115;-74
2023/09/27 00:30:59;;;;;;;19.65;12.77;;;;;;;-144.73;100.00;54452.84;5052577;28;20040;-73
2023/09/27 00:33:24;;;;;;;17.52;12.50;;;;;;;-144.73;100.00;54485.69;5047735;28;20033;-74
2023/09/27 00:35:50;;;;;;;17.77;13.05;;;;;;;-144.73;100.00;54448.75;5047133;28;20063;-74
2023/09/27 00:38:15;;;;;;;19.00;10.90;;;;;;;-144.73;100.00;54444.66;5034123;28;20452;-74
2023/09/27 00:40:48;;;;;;;16.05;11.15;;;;;;;-144.73;100.00;54446.69;5067723;28;20017;-73
2023/09/27 00:43:30;;;;;;;15.48;12.38;;;;;;;-144.73;100.00;54461.06;5048203;28;20044;-74
2023/09/27 00:46:06;;;;;;;17.50;12.10;;;;;;;-144.73;100.00;54463.13;5058539;28;20052;-74
2023/09/27 00:48:35;;;;;;;19.95;13.73;;;;;;;-144.73;100.00;54469.28;5047716;28;20043;-74
2023/09/27 00:51:01;;;;;;;17.65;14.02;;;;;;;-144.73;100.00;54461.06;5048481;28;20025;-74
2023/09/27 00:53:29;;;;;;;15.40;12.38;;;;;;;-144.73;100.00;54493.91;5042466;28;20059;-74
2023/09/27 00:55:55;;;;;;;18.83;13.00;;;;;;;-144.73;100.00;54473.38;5066844;28;20029;-74
2023/09/27 00:58:21;;;;;;;17.58;12.27;;;;;;;-144.73;100.00;54448.75;5049076;28;20045;-74
2023/09/27 01:00:49;;;;;;;19.17;14.02;;;;;;;-144.73;100.00;54477.47;5045868;28;20365;-74
2023/09/27 01:03:15;;;;;;;15.32;12.23;;;;;;;-144.73;100.00;54456.97;5052041;28;20155;-73
2023/09/27 01:05:45;;;;;;;18.63;14.05;;;;;;;-144.73;100.00;54495.97;5043793;28;20083;-73
2023/09/27 01:08:10;;;;;;;24.35;13.77;;;;;;;-144.73;100.00;54448.75;5050543;28;20083;-74
2023/09/27 01:10:36;;;;;;;18.58;13.25;;;;;;;-144.73;100.00;54407.69;5051094;28;20017;-74
2023/09/27 01:13:02;;;;;;;15.70;12.05;;;;;;;-144.73;100.00;54452.84;5048116;28;20137;-74
2023/09/27 01:15:35;;;;;;;20.38;13.40;;;;;;;-144.73;100.00;54461.06;5048772;28;20025;-75
2023/09/27 01:18:02;;;;;;;19.48;14.52;;;;;;;-144.73;100.00;54461.06;5038930;28;20056;-74
2023/09/27 01:20:29;;;;;;;18.73;14.50;;;;;;;-144.73;100.00;54436.44;5065237;28;20021;-74
2023/09/27 01:23:01;;;;;;;14.88;11.45;;;;;;;-144.73;100.00;54454.91;5051536;28;20055;-74
2023/09/27 01:25:28;;;;;;;;;;;;;;;-144.73;100.00;54481.59;5049871;28;20025;-73
2023/09/27 01:27:54;;;;;;;14.77;12.00;;;;;;;-144.73;100.00;54469.28;5045918;28;19912;-74
2023/09/27 01:30:19;;;;;;;22.05;15.68;;;;;;;-144.73;100.00;54475.44;5049619;28;20104;-74
2023/09/27 01:32:44;;;;;;;15.43;12.07;;;;;;;-144.73;100.00;54481.59;5051269;28;20044;-73
2023/09/27 01:35:10;;;;;;;20.48;13.07;;;;;;;-144.73;100.00;54436.44;5050614;28;20025;-74
2023/09/27 01:37:36;;;;;;;20.27;12.90;;;;;;;-144.73;100.00;54475.44;5050373;28;20016;-74
2023/09/27 01:40:02;;;;;;;17.75;12.27;;;;;;;-144.73;100.00;54489.81;5067368;28;20028;-73
2023/09/27 01:42:27;;;;;;;20.50;15.82;;;;;;;-144.73;100.00;54452.84;5041373;28;20013;-74
2023/09/27 01:44:52;;;;;;;17.27;12.25;;;;;;;-144.73;100.00;54452.84;5067970;28;20028;-73
2023/09/27 01:47:18;;;;;;;17.40;12.75;;;;;;;-144.73;100.00;54485.69;5052097;28;20116;-74
2023/09/27 01:49:43;;;;;;;14.38;11.80;;;;;;;-144.73;100.00;54473.38;5064725;28;20040;-74
2023/09/27 01:52:09;;;;;;;14.65;11.32;;;;;;;-144.73;100.00;54456.97;5053256;28;20025;-73
2023/09/27 01:54:35;;;;;;;18.02;13.23;;;;;;;-144.73;100.00;54461.06;5054352;28;20033;-74
2023/09/27 01:57:00;;;;;;;17.25;13.40;;;;;;;-144.73;100.00;54469.28;5054870;28;20115;-75
2023/09/27 01:59:25;;;;;;;17.08;10.68;;;;;;;-144.73;100.00;54463.13;5052091;28;20033;-75
2023/09/27 02:01:51;;;;;;;16.15;11.73;;;;;;;-144.73;100.00;54432.31;5056196;28;20096;-75
2023/09/27 02:04:16;;;;;;;15.63;10.32;;;;;;;-144.73;100.00;54469.28;5054514;28;20037;-75
2023/09/27 02:06:41;;;;;;;14.65;12.05;;;;;;;-144.73;100.00;54469.28;5054486;28;20502;-74
2023/09/27 02:09:07;;;;;;;22.45;13.23;;;;;;;-144.73;100.00;54469.28;5049707;28;20063;-75
2023/09/27 02:11:33;;;;;;;17.98;12.13;;;;;;;-144.73;100.00;54461.06;5053916;28;20028;-75
2023/09/27 02:13:59;;;;;;;19.35;13.30;;;;;;;-144.73;100.00;54477.47;5054766;28;20044;-75
2023/09/27 02:16:24;;;;;;;16.35;10.35;;;;;;;-144.73;100.00;54448.75;5055498;28;20017;-75
2023/09/27 02:18:50;;;;;;;15.05;12.48;;;;;;;-144.73;100.00;54465.16;5053465;28;20025;-75
2023/09/27 02:21:15;;;;;;;19.90;12.02;;;;;;;-144.73;100.00;54469.28;5054071;28;20391;-75
2023/09/27 02:23:40;;;;;;;16.42;11.95;;;;;;;-144.73;100.00;54461.06;5054791;28;20124;-74
2023/09/27 02:26:06;;;;;;;13.75;11.65;;;;;;;-144.73;100.00;54448.75;5054265;28;20089;-74
2023/09/27 02:28:31;;;;;;;21.63;14.77;;;;;;;-144.73;100.00;54485.69;5048953;28;20033;-74
2023/09/27 02:30:58;;;;;;;15.95;11.80;;;;;;;-144.73;100.00;54500.06;5048668;28;20024;-75
2023/09/27 02:33:27;;;;;;;19.42;12.10;;;;;;;-144.73;100.00;54510.31;5053475;28;20065;-75
2023/09/27 02:35:53;;;;;;;20.02;14.55;;;;;;;-144.73;100.00;54473.38;5053873;28;20106;-75
2023/09/27 02:38:18;;;;;;;17.40;13.65;;;;;;;-144.73;100.00;54491.84;5053081;28;20052;-75
2023/09/27 02:40:43;;;;;;;25.05;14.20;;;;;;;-144.73;100.00;54477.47;5053923;28;20029;-75
2023/09/27 02:43:09;;;;;;;23.40;15.35;;;;;;;-144.73;100.00;54469.28;5052237;28;20119;-75
2023/09/27 02:45:34;;;;;;;24.13;16.10;;;;;;;-144.73;100.00;54459.00;5053519;28;20071;-75
2023/09/27 02:48:01;;;;;;;22.27;17.42;;;;;;;-144.73;100.00;54465.16;5053228;28;20037;-74
2023/09/27 02:50:26;;;;;;;23.73;16.83;;;;;;;-144.73;100.00;54461.06;5053974;28;20029;-75
2023/09/27 02:52:52;;;;;;;20.38;15.60;;;;;;;-144.73;100.00;54452.84;5069744;28;20063;-73
2023/09/27 02:55:17;;;;;;;14.43;11.63;;;;;;;-144.73;100.00;54411.81;5059503;28;20070;-75
2023/09/27 02:57:48;;;;;;;18.83;13.15;;;;;;;-144.73;100.00;54461.06;5052478;28;20037;-75
2023/09/27 03:00:14;;;;;;;18.53;14.03;;;;;;;-144.73;100.00;54465.16;5053731;28;20025;-74
2023/09/27 03:02:39;;;;;;;22.70;15.13;;;;;;;-144.73;100.00;54481.59;5051755;28;20062;-75
2023/09/27 03:05:07;;;;;;;18.90;13.90;;;;;;;-144.73;100.00;54469.28;5058105;28;20021;-75
2023/09/27 03:07:34;;;;;;;22.48;16.80;;;;;;;-144.73;100.00;54489.81;5051447;28;20024;-75
2023/09/27 03:09:59;;;;;;;26.50;15.93;;;;;;;-144.73;100.00;54500.06;5068848;28;20110;-75
2023/09/27 03:12:24;;;;;;;24.48;16.55;;;;;;;-144.73;100.00;54473.38;5044269;28;20063;-75
2023/09/27 03:14:50;;;;;;;25.48;17.98;;;;;;;-144.73;100.00;54469.28;5053517;28;20025;-75
2023/09/27 03:17:16;;;;;;;20.63;14.93;;;;;;;-144.73;100.00;54481.59;5053348;28;20036;-75
2023/09/27 03:19:41;;;;;;;25.88;18.58;;;;;;;-144.73;100.00;54456.97;5048235;28;20408;-75
2023/09/27 03:22:07;;;;;;;27.48;16.13;;;;;;;-144.73;100.00;54473.38;5047931;28;20028;-75
2023/09/27 03:24:34;;;;;;;19.85;13.43;;;;;;;-144.73;100.00;54498.00;5044272;28;20109;-74
2023/09/27 03:27:00;;;;;;;18.90;12.98;;;;;;;-144.73;100.00;54498.00;5053425;28;20094;-75
2023/09/27 03:29:25;;;;;;;21.67;13.20;;;;;;;-144.73;100.00;54459.00;5051210;28;20036;-75
2023/09/27 03:31:50;;;;;;;16.88;13.95;;;;;;;-144.73;100.00;54469.28;5060974;28;20383;-74
2023/09/27 03:34:16;;;;;;;17.88;12.75;;;;;;;-144.73;100.00;54493.91;5052737;28;20087;-75
2023/09/27 03:36:44;;;;;;;16.73;12.68;;;;;;;-144.73;100.00;54461.06;5054100;28;20036;-74
2023/09/27 03:39:09;;;;;;;19.95;13.75;;;;;;;-144.73;100.00;54495.97;5045327;28;20040;-75
2023/09/27 03:41:34;;;;;;;25.33;13.77;;;;;;;-144.73;100.00;54461.06;5052194;28;20021;-75
2023/09/27 03:44:00;;;;;;;22.13;14.10;;;;;;;-144.73;100.00;54473.38;5054091;28;20033;-75
2023/09/27 03:46:25;;;;;;;21.92;14.73;;;;;;;-144.73;100.00;54456.97;5053236;28;20052;-75
2023/09/27 03:48:50;;;;;;;20.10;14.07;;;;;;;-144.73;100.00;54485.69;5052381;28;20056;-75
2023/09/27 03:51:23;;;;;;;18.70;12.55;;;;;;;-144.73;100.00;54493.91;5036800;28;20025;-73
2023/09/27 03:53:48;;;;;;;17.63;12.93;;;;;;;-144.73;100.00;54485.69;5044962;28;20519;-74
2023/09/27 03:56:14;;;;;;;17.92;13.80;;;;;;;-144.73;100.00;54498.00;5052832;28;20438;-74
2023/09/27 03:58:39;;;;;;;20.65;17.00;;;;;;;-144.73;100.00;54506.22;5051712;28;20091;-74
2023/09/27 04:01:04;;;;;;;22.55;16.65;;;;;;;-144.73;100.00;54446.69;5052373;28;20047;-73
2023/09/27 04:03:30;;;;;;;23.55;17.13;;;;;;;-144.73;100.00;54479.53;5044707;28;20187;-74
2023/09/27 04:05:56;;;;;;;19.25;15.40;;;;;;;-144.73;100.00;54502.13;5044902;28;20053;-74
2023/09/27 04:08:21;;;;;;;21.85;14.65;;;;;;;-144.73;100.00;54489.81;5051477;28;20025;-73
2023/09/27 04:10:47;;;;;;;24.05;18.38;;;;;;;-144.73;100.00;54539.06;5053357;28;20107;-74
2023/09/27 04:13:12;;;;;;;29.15;21.88;;;;;;;-144.73;100.00;54469.28;5043214;28;20540;-74
2023/09/27 04:15:38;;;;;;;27.98;20.60;;;;;;;-144.73;100.00;54473.38;5044717;28;20152;-74
2023/09/27 04:18:03;;;;;;;24.92;16.48;;;;;;;-144.73;100.00;54465.16;5051337;28;20067;-75
2023/09/27 04:20:29;;;;;;;22.42;17.95;;;;;;;-144.73;100.00;54485.69;5044803;28;20029;-74
2023/09/27 04:22:54;;;;;;;23.20;16.92;;;;;;;-144.73;100.00;54485.69;5058345;28;20033;-74
2023/09/27 04:25:20;;;;;;;23.40;16.30;;;;;;;-144.73;100.00;54485.69;5051600;28;20025;-73
2023/09/27 04:27:49;;;;;;;21.83;14.02;;;;;;;-144.73;100.00;54491.84;5051442;28;20108;-73
2023/09/27 04:30:18;;;;;;;26.92;16.60;;;;;;;-144.73;100.00;54489.81;5043799;28;20025;-73
2023/09/27 04:32:45;;;;;;;22.60;17.20;;;;;;;-144.73;100.00;54487.75;5050872;28;20025;-73
2023/09/27 04:35:10;;;;;;;22.58;17.55;;;;;;;-144.73;100.00;54500.06;5068126;28;20028;-73
2023/09/27 04:37:37;;;;;;;27.83;20.02;;;;;;;-144.73;100.00;54489.81;5052142;28;20025;-74
2023/09/27 04:40:08;;;;;;;23.88;17.67;;;;;;;-144.73;100.00;54502.13;5051760;28;20116;-74
2023/09/27 04:42:34;;;;;;;22.92;18.33;;;;;;;-144.73;100.00;54489.81;5043052;28;20017;-73
2023/09/27 04:44:59;;;;;;;26.73;17.02;;;;;;;-144.73;100.00;54456.97;5051758;28;20034;-74
2023/09/27 04:47:24;;;;;;;23.35;15.73;;;;;;;-144.73;100.00;54500.06;5051028;28;20025;-74
2023/09/27 04:49:50;;;;;;;21.52;17.17;;;;;;;-144.73;100.00;54543.16;5068835;28;20025;-74
2023/09/27 04:52:15;;;;;;;21.17;13.82;;;;;;;-144.73;100.00;54489.81;5051815;28;20024;-74
2023/09/27 04:54:41;;;;;;;23.63;15.48;;;;;;;-144.73;100.00;54475.44;5052496;28;20052;-74
2023/09/27 04:57:07;;;;;;;20.52;15.43;;;;;;;-144.73;100.00;54510.31;5052072;28;20052;-74
2023/09/27 04:59:33;;;;;;;21.05;15.60;;;;;;;-144.73;100.00;54483.66;5051736;28;20044;-74
2023/09/27 05:01:58;;;;;;;27.77;18.65;;;;;;;-144.73;100.00;54485.69;5051434;28;20037;-74
2023/09/27 05:04:23;;;;;;;24.10;17.70;;;;;;;-144.73;100.00;54493.91;5043200;28;20038;-74
2023/09/27 05:06:49;;;;;;;24.88;18.75;;;;;;;-144.73;100.00;54485.69;5048950;28;20025;-74
2023/09/27 05:09:14;;;;;;;27.05;18.17;;;;;;;-144.73;100.00;54504.16;5046885;28;20112;-73
2023/09/27 05:11:40;;;;;;;22.67;17.35;;;;;;;-144.73;100.00;54493.91;5068506;28;20025;-73
2023/09/27 05:14:06;;;;;;;21.60;15.50;;;;;;;-144.73;100.00;54469.28;5051484;28;20040;-74
2023/09/27 05:16:35;;;;;;;20.45;14.95;;;;;;;-144.73;100.00;54452.84;5050860;28;20033;-73
2023/09/27 05:19:01;;;;;;;23.88;17.45;;;;;;;-144.73;100.00;54469.28;5049909;28;20395;-73
2023/09/27 05:21:26;;;;;;;23.67;16.65;;;;;;;-144.73;100.00;54477.47;5052357;28;20021;-74
2023/09/27 05:23:51;;;;;;;28.70;17.92;;;;;;;-144.73;100.00;54502.13;5047434;28;20090;-74
2023/09/27 05:26:17;;;;;;;25.25;16.95;;;;;;;-144.73;100.00;54465.16;5040335;28;20021;-75
2023/09/27 05:28:43;;;;;;;24.25;18.45;;;;;;;-144.73;100.00;54477.47;5055926;28;20443;-75
2023/09/27 05:31:09;;;;;;;27.00;19.92;;;;;;;-144.73;100.00;54469.28;5048772;28;20175;-76
2023/09/27 05:33:34;;;;;;;36.03;22.10;;;;;;;-144.73;100.00;54448.75;5046878;28;20128;-74
2023/09/27 05:35:59;;;;;;;33.47;22.23;;;;;;;-144.73;100.00;54481.59;5036434;28;20093;-74
2023/09/27 05:38:25;;;;;;;32.35;21.67;;;;;;;-144.73;100.00;54481.59;5051995;28;20088;-74
2023/09/27 05:40:50;;;;;;;38.08;24.00;;;;;;;-144.73;100.00;54481.59;5055202;28;20048;-75
2023/09/27 05:43:16;;;;;;;33.38;23.40;;;;;;;-144.73;100.00;54508.28;5054311;28;20041;-74
2023/09/27 05:45:41;;;;;;;34.28;20.80;;;;;;;-144.73;100.00;54518.53;5055805;28;20055;-74
2023/09/27 05:48:06;;;;;;;35.47;22.65;;;;;;;-144.73;100.00;54522.63;5055787;28;20033;-74
2023/09/27 05:50:34;;;;;;;35.80;23.02;;;;;;;-144.73;100.00;54512.38;5054750;28;20025;-74
2023/09/27 05:53:00;;;;;;;57.80;40.25;;;;;;;-144.73;100.00;54547.28;5054334;28;20041;-74
2023/09/27 05:55:26;;;;;;;44.97;31.00;;;;;;;-144.73;100.00;54485.69;5040200;28;20070;-74
2023/09/27 05:57:53;;;;;;;39.28;23.33;;;;;;;-144.73;100.00;54506.22;5050836;28;20496;-74
2023/09/27 06:00:26;;;;;;;27.38;19.95;;;;;;;-144.73;100.00;54493.91;5050661;28;20025;-74
2023/09/27 06:02:52;;;;;;;28.60;17.85;;;;;;;-144.73;100.00;54516.47;5053883;28;20134;-74
2023/09/27 06:05:17;;;;;;;40.47;23.73;;;;;;;-144.73;100.00;54456.97;5062891;28;20025;-74
2023/09/27 06:07:42;;;;;;;35.22;22.95;;;;;;;-144.73;100.00;54526.75;5054265;28;20021;-74
2023/09/27 06:10:08;;;;;;;34.17;21.10;;;;;;;-144.73;100.00;54493.91;5046531;28;20051;-74
2023/09/27 06:12:34;;;;;;;32.67;21.38;;;;;;;-144.73;100.00;54500.06;5055005;28;20025;-75
2023/09/27 06:14:59;;;;;;;31.65;22.15;;;;;;;-144.73;100.00;54502.13;5055793;28;20063;-74
2023/09/27 06:17:25;;;;;;;33.35;21.50;;;;;;;-144.73;100.00;54498.00;5053575;28;20052;-74
2023/09/27 06:19:50;;;;;;;32.35;22.60;;;;;;;-144.73;100.00;54485.69;5045901;28;20030;-74
2023/09/27 06:22:16;;;;;;;25.98;20.85;;;;;;;-144.73;100.00;54444.66;5060125;28;20021;-74
2023/09/27 06:24:42;;;;;;;30.98;22.23;;;;;;;-144.73;100.00;54518.53;5053453;28;20040;-74
2023/09/27 06:27:08;;;;;;;31.60;22.58;;;;;;;-144.73;100.00;54493.91;5070882;28;20021;-74
2023/09/27 06:29:34;;;;;;;41.33;23.58;;;;;;;-144.73;100.00;54452.84;5053743;28;20048;-75
2023/09/27 06:31:59;;;;;;;25.92;21.88;;;;;;;-144.73;100.00;54483.66;5042513;28;20428;-75
2023/09/27 06:34:26;;;;;;;26.35;20.38;;;;;;;-144.73;100.00;54495.97;5044972;28;20029;-74
2023/09/27 06:36:54;;;;;;;39.05;21.30;;;;;;;-144.73;100.00;54469.28;5036501;28;20040;-74
2023/09/27 06:39:23;;;;;;;31.50;20.80;;;;;;;-144.73;100.00;54489.81;5048201;28;20643;-75
2023/09/27 06:41:49;;;;;;;25.00;19.13;;;;;;;-144.73;100.00;54514.44;5055055;28;20076;-75
2023/09/27 06:44:15;;;;;;;25.23;18.25;;;;;;;-144.73;100.00;54485.69;5069865;28;20503;-74
2023/09/27 06:46:40;;;;;;;25.55;18.73;;;;;;;-144.73;100.00;54487.75;5054980;28;20017;-74
2023/09/27 06:49:07;;;;;;;26.02;18.42;;;;;;;-144.73;100.00;54489.81;5070215;28;20029;-75
2023/09/27 06:51:33;;;;;;;25.88;18.40;;;;;;;-144.73;100.00;54493.91;5046487;28;20056;-75
2023/09/27 06:53:59;;;;;;;29.90;18.08;;;;;;;-144.73;100.00;54514.44;5054712;28;20048;-75
2023/09/27 06:56:25;;;;;;;21.63;18.15;;;;;;;-144.73;100.00;54502.13;5053429;28;20013;-75
2023/09/27 06:58:51;;;;;;;28.98;19.42;;;;;;;-144.73;100.00;54498.00;5043981;28;20040;-72
2023/09/27 07:01:18;;;;;;;25.92;17.77;;;;;;;-144.73;100.00;54469.28;5051561;28;20394;-73
2023/09/27 07:03:43;;;;;;;21.70;17.58;;;;;;;-144.73;100.00;54485.69;5048085;28;20121;-72
2023/09/27 07:06:08;;;;;;;24.00;16.52;;;;;;;-144.73;100.00;54502.13;5045144;28;20111;-74
2023/09/27 07:08:34;;;;;;;20.50;16.90;;;;;;;-144.73;100.00;54502.13;5065187;28;20515;-73
2023/09/27 07:11:09;;;;;;;21.13;16.20;;;;;;;-144.73;100.00;54514.44;5049757;28;20032;-72
2023/09/27 07:13:35;;;;;;;26.20;15.15;;;;;;;-144.73;100.00;54485.69;5049339;28;20048;-73
2023/09/27 07:16:20;;;;;;;24.60;15.55;;;;;;;-144.73;100.00;54498.00;5050944;28;20024;-72
2023/09/27 07:18:46;;;;;;;19.52;13.77;;;;;;;-144.73;100.00;54506.22;5050696;28;20029;-75
2023/09/27 07:21:11;;;;;;;19.50;13.32;;;;;;;-144.73;100.00;54473.38;5050090;28;20534;-73
2023/09/27 07:23:37;;;;;;;20.65;13.32;;;;;;;-144.73;100.00;54465.16;5049112;28;20036;-72
2023/09/27 07:26:04;;;;;;;23.48;13.73;;;;;;;-144.73;100.00;54459.00;5051506;28;20074;-73
2023/09/27 07:28:31;;;;;;;20.40;12.93;;;;;;;-144.73;100.00;54493.91;5063457;28;20037;-72
2023/09/27 07:30:57;;;;;;;14.65;11.48;;;;;;;-144.73;100.00;54469.28;5045481;28;20028;-74
2023/09/27 07:33:23;;;;;;;18.45;12.13;;;;;;;-144.73;100.00;54506.22;5048190;28;20037;-72
2023/09/27 07:35:51;;;;;;;15.10;12.05;;;;;;;-144.73;100.00;54485.69;5050435;28;20100;-73
2023/09/27 07:38:17;;;;;;;22.10;11.43;;;;;;;-144.73;100.00;54469.28;5049041;28;20024;-73
2023/09/27 07:40:46;;;;;;;16.38;11.10;;;;;;;-144.73;100.00;54493.91;5051267;28;20108;-72
2023/09/27 07:43:12;;;;;;;15.70;10.50;;;;;;;-144.73;100.00;54479.53;5049963;28;20040;-73
2023/09/27 07:45:41;;;;;;;18.05;11.32;;;;;;;-144.73;100.00;54481.59;5049601;28;20043;-73
2023/09/27 07:48:07;;;;;;;18.85;10.88;;;;;;;-144.73;100.00;54446.69;5048472;28;20392;-73
2023/09/27 07:50:34;;;;;;;12.65;9.68;;;;;;;-144.73;100.00;54500.06;5065890;28;20021;-74
2023/09/27 07:53:03;;;;;;;17.63;10.43;;;;;;;-144.73;100.00;54477.47;5047740;28;20048;-73
2023/09/27 07:55:32;;;;;;;16.42;9.48;;;;;;;-144.73;100.00;54465.16;5047504;28;20044;-73
2023/09/27 07:58:01;;;;;;;17.33;10.63;;;;;;;-144.73;100.00;54473.38;5049699;28;20035;-73
2023/09/27 08:00:30;;;;;;;25.98;11.30;;;;;;;-144.73;100.00;54461.06;5066723;28;20082;-74
2023/09/27 08:03:00;;;;;;;20.48;9.25;;;;;;;-144.73;100.00;54510.31;5044539;28;20045;-73
2023/09/27 08:05:26;;;;;;;16.92;10.18;;;;;;;-144.73;100.00;54506.22;5048734;28;20025;-74
2023/09/27 08:07:51;;;;;;;17.33;8.85;;;;;;;-144.73;100.00;54514.44;5048970;28;20029;-73
2023/09/27 08:10:17;;;;;;;16.90;9.35;;;;;;;-144.73;100.00;54485.69;5048775;28;20525;-73
2023/09/27 08:12:43;;;;;;;16.42;10.27;;;;;;;-144.73;100.00;54465.16;5048637;28;20743;-74
2023/09/27 08:15:12;;;;;;;19.48;9.57;;;;;;;-144.73;100.00;54477.47;5049166;28;20020;-73
2023/09/27 08:17:38;;;;;;;16.80;9.68;;;;;;;-144.73;100.00;54473.38;5046870;28;20024;-73
2023/09/27 08:20:09;;;;;;;20.33;12.02;;;;;;;-144.73;100.00;54473.38;5048588;28;20029;-75
2023/09/27 08:22:39;;;;;;;25.27;11.55;;;;;;;-144.73;100.00;54417.97;5047187;28;20071;-73
2023/09/27 08:25:05;;;;;;;16.95;9.73;;;;;;;-144.73;100.00;54448.75;5048200;28;20028;-73
2023/09/27 08:27:31;;;;;;;19.73;10.70;;;;;;;-144.73;100.00;54465.16;5048146;28;20052;-73
2023/09/27 08:29:57;;;;;;;20.88;10.57;;;;;;;-144.73;100.00;54481.59;5048659;28;20079;-73
2023/09/27 08:32:22;;;;;;;25.92;10.95;;;;;;;-144.73;100.00;54426.16;5047912;28;20024;-74
2023/09/27 08:34:48;;;;;;;21.67;10.02;;;;;;;-144.73;100.00;54456.97;5048983;28;20040;-74
2023/09/27 08:37:13;;;;;;;18.88;10.07;;;;;;;-144.73;100.00;54502.13;5049474;28;20108;-74
2023/09/27 08:39:39;;;;;;;29.13;11.30;;;;;;;-144.73;100.00;54469.28;5046048;28;20033;-73
2023/09/27 08:42:04;;;;;;;17.45;10.70;;;;;;;-144.73;100.00;54448.75;5049674;28;20029;-74
2023/09/27 08:44:31;;;;;;;20.27;10.32;;;;;;;-144.73;100.00;54473.38;5047938;28;20040;-73
2023/09/27 08:46:57;;;;;;;18.20;11.02;;;;;;;-144.73;100.00;54436.44;5047939;28;20052;-73
2023/09/27 08:49:24;;;;;;;19.83;9.73;;;;;;;-144.73;100.00;54448.75;5049106;28;20040;-74
2023/09/27 08:51:50;;;;;;;21.92;10.77;;;;;;;-144.73;100.00;54411.81;5048373;28;20036;-74
2023/09/27 08:54:21;;;;;;;22.80;10.23;;;;;;;-144.73;100.00;54448.75;5042317;28;20045;-73
2023/09/27 08:56:48;;;;;;;20.65;10.13;;;;;;;-144.73;100.00;54432.31;5065287;28;20024;-73
2023/09/27 08:59:15;;;;;;;18.65;9.88;;;;;;;-144.73;100.00;54407.69;5047784;28;20029;-74
2023/09/27 09:01:43;;;;;;;18.90;9.77;;;;;;;-144.73;100.00;54461.06;5048711;28;20119;-73
2023/09/27 09:04:09;;;;;;;21.13;9.55;;;;;;;-144.73;100.00;54407.69;5044007;28;20025;-73
2023/09/27 09:06:35;;;;;;;20.08;9.07;;;;;;;-144.73;100.00;54424.13;5050075;28;20064;-74
2023/09/27 09:09:10;;;;;;;21.30;9.30;;;;;;;-144.73;100.00;54444.66;5040617;28;20048;-73
2023/09/27 09:11:54;;;;;;;23.20;9.55;;;;;;;-144.73;100.00;54428.22;5041695;28;20025;-75
2023/09/27 09:14:37;;;;;;;17.05;8.68;;;;;;;-144.73;100.00;54428.22;5045281;28;20052;-74
2023/09/27 09:17:02;;;;;;;14.98;8.02;;;;;;;-144.73;100.00;54444.66;5041199;28;20025;-74
2023/09/27 09:19:27;;;;;;;15.27;8.23;;;;;;;-144.73;100.00;54413.84;5053269;28;20037;-73
2023/09/27 09:22:07;;;;;;;14.23;8.13;;;;;;;-144.73;100.00;54436.44;5045647;28;20025;-74
2023/09/27 09:24:34;;;;;;;25.45;8.07;;;;;;;-144.73;100.00;54438.50;5047563;28;20049;-75
2023/09/27 09:27:09;;;;;;;18.50;7.63;;;;;;;-144.73;100.00;54432.31;5048571;28;20424;-74
2023/09/27 09:29:46;;;;;;;17.27;8.13;;;;;;;-144.73;100.00;54407.69;5044441;28;20029;-74
2023/09/27 09:32:18;;;;;;;13.70;7.32;;;;;;;-144.73;98.81;54411.81;5044981;28;20474;-73
2023/09/27 09:34:46;;;;;;;10.98;7.03;;;;;;;-144.73;99.21;54432.31;5046255;28;20025;-74
2023/09/27 09:37:22;;;;;;;16.25;6.60;;;;;;;-144.73;99.58;54428.22;5064984;28;20545;-74
2023/09/27 09:39:53;;;;;;;18.63;6.75;;;;;;;-144.73;99.74;54428.22;5041646;28;20037;-74
2023/09/27 09:42:30;;;;;;;;;;;;;;;-144.73;98.80;54444.66;5044517;28;20017;-74
2023/09/27 09:45:06;;;;;;;16.60;6.63;;;;;;;-144.73;91.01;54448.75;5045273;28;19913;-74
2023/09/27 09:47:35;;;;;;;13.07;6.10;;;;;;;-144.73;89.99;54391.28;5055618;28;20021;-74
2023/09/27 09:50:04;;;;;;;12.80;6.10;;;;;;;-144.73;81.97;54378.97;5048850;28;20044;-72
2023/09/27 09:52:31;;;;;;;14.75;6.10;;;;;;;-144.73;81.10;54415.91;5038770;28;20115;-75
2023/09/27 09:54:57;;;;;;;13.18;5.00;;;;;;;-144.73;71.04;54407.69;5048335;28;20025;-75
2023/09/27 09:57:35;;;;;;;13.50;5.43;;;;;;;-144.73;73.61;54415.91;5044391;28;20047;-74
2023/09/27 10:00:18;;;;;;;16.13;5.68;;;;;;;-144.73;77.61;54436.44;5039000;28;20048;-74
2023/09/27 10:02:49;;;;;;;16.23;5.30;;;;;;;-144.73;78.73;54428.22;5050004;28;20032;-74
2023/09/27 10:05:23;;;;;;;11.57;5.68;;;;;;;-144.73;72.57;54428.22;5049697;28;20033;-74
2023/09/27 10:07:50;;;;;;;11.70;5.05;;;;;;;-144.73;77.34;54374.84;5040740;28;20037;-74
2023/09/27 10:10:21;;;;;;;24.05;5.20;;;;;;;-144.73;69.04;54411.81;5047960;28;20463;-75
2023/09/27 10:12:49;;;;;;;12.65;5.60;;;;;;;-144.73;68.28;54395.38;5049280;28;20033;-74
2023/09/27 10:15:22;;;;;;;12.38;5.43;;;;;;;-144.73;66.59;54411.81;5051670;28;20028;-74
2023/09/27 10:17:47;;;;;;;15.38;6.00;;;;;;;-144.73;66.37;54366.66;5046278;28;20025;-75
2023/09/27 10:20:17;;;;;;;10.80;4.90;;;;;;;-144.73;71.94;54424.13;5051843;28;20091;-74
2023/09/27 10:22:47;;;;;;;20.73;6.13;;;;;;;-144.73;66.09;54407.69;5042673;28;20023;-75
2023/09/27 10:25:31;;;;;;;12.00;5.88;;;;;;;-144.73;66.49;54415.91;5051592;28;20017;-74
2023/09/27 10:28:04;;;;;;;12.98;5.30;;;;;;;-144.73;65.05;54407.69;5042090;28;20037;-74
2023/09/27 10:31:06;;;;;;;14.88;5.65;;;;;;;-144.73;68.47;54407.69;5042913;28;20037;-75
2023/09/27 10:33:32;;;;;;;17.02;4.97;;;;;;;-144.73;61.35;54407.69;5041404;28;20048;-75
2023/09/27 10:36:00;;;;;;;20.52;5.35;;;;;;;-144.73;62.43;54387.19;5050403;28;20029;-74
2023/09/27 10:38:49;;;;;;;18.80;6.10;;;;;;;-144.73;63.81;54395.38;5050563;28;20036;-74
2023/09/27 10:41:33;;;;;;;12.65;5.15;;;;;;;-144.73;65.67;54346.13;5040021;28;20072;-74
2023/09/27 10:44:02;;;;;;;11.98;5.18;;;;;;;-144.73;63.58;54389.22;5040484;28;20206;-73
2023/09/27 10:46:42;;;;;;;14.35;5.75;;;;;;;-144.73;66.01;54407.69;5034509;28;20027;-74
2023/09/27 10:49:08;;;;;;;14.88;6.25;;;;;;;-144.73;67.03;54420.00;5035063;28;20032;-74
2023/09/27 10:51:34;;;;;;;19.45;6.05;;;;;;;-144.73;71.13;54411.81;5040322;28;20033;-75
2023/09/27 10:53:59;;;;;;;13.80;6.18;;;;;;;-144.73;69.62;54381.00;5050928;28;20099;-74
2023/09/27 10:56:25;;;;;;;17.23;6.05;;;;;;;-144.73;70.82;54407.69;5050728;28;20060;-74
2023/09/27 10:58:51;;;;;;;15.98;5.60;;;;;;;-144.73;70.95;54391.28;5038422;28;20048;-74